createdAt,value
2016-08-28T10:53:47.780Z,45
2016-08-28T10:54:47.534Z,40
2016-08-28T10:55:49.127Z,45
2016-08-28T10:56:48.650Z,40
2016-08-28T10:57:49.134Z,45
2016-08-28T10:58:47.781Z,45
2016-08-28T10:59:47.475Z,45
2016-08-28T11:00:47.446Z,45
2016-08-28T11:02:02.167Z,45
2016-08-28T11:02:47.398Z,45
2016-08-28T11:03:48.383Z,45
2016-08-28T11:04:47.813Z,45
2016-08-28T11:05:48.906Z,45
2016-08-28T11:06:48.748Z,45
2016-08-28T11:07:47.376Z,45
2016-08-28T11:08:47.352Z,45
2016-08-28T11:09:48.112Z,50
2016-08-28T11:10:47.612Z,45
2016-08-28T11:11:47.323Z,45
2016-08-28T11:12:47.272Z,50
2016-08-28T11:13:47.313Z,50
2016-08-28T11:14:48.064Z,50
2016-08-28T11:15:47.247Z,50
2016-08-28T11:17:02.231Z,50
2016-08-28T11:17:47.289Z,50
2016-08-28T11:18:47.172Z,55
2016-08-28T11:20:16.527Z,55
2016-08-28T11:20:47.957Z,55
2016-08-28T11:22:01.810Z,55
2016-08-28T11:22:48.158Z,55
2016-08-28T11:23:47.112Z,55
2016-08-28T11:24:47.053Z,55
2016-08-28T11:25:47.026Z,60
2016-08-28T11:26:48.220Z,65
2016-08-28T11:27:47.163Z,60
2016-08-28T11:28:47.741Z,60
2016-08-28T11:29:47.075Z,65
2016-08-28T11:30:47.636Z,65
2016-08-28T11:31:47.066Z,65
2016-08-28T11:32:47.007Z,55
2016-08-28T11:33:47.285Z,70
2016-08-28T11:34:47.676Z,70
2016-08-28T11:35:46.840Z,55
2016-08-28T11:37:01.496Z,70
2016-08-28T11:38:01.510Z,50
2016-08-28T11:38:46.758Z,65
2016-08-28T11:39:47.856Z,65
2016-08-28T11:40:46.754Z,65
2016-08-28T11:42:01.408Z,70
2016-08-28T11:42:47.089Z,55
2016-08-28T11:43:46.876Z,60
2016-08-28T11:44:46.844Z,80
2016-08-28T11:45:47.380Z,85
2016-08-28T11:46:47.044Z,80
2016-08-28T11:47:46.917Z,75
2016-08-28T11:48:47.147Z,80
2016-08-28T11:49:46.586Z,70
2016-08-28T11:50:46.612Z,65
2016-08-28T11:52:01.580Z,115
2016-08-28T11:52:47.331Z,50
2016-08-28T11:53:47.053Z,50
2016-08-28T11:54:46.735Z,80
2016-08-28T11:55:47.445Z,115
2016-08-28T11:57:02.932Z,80
2016-08-28T11:57:47.037Z,125
2016-08-28T11:58:46.943Z,245
2016-08-28T11:59:46.807Z,300
2016-08-28T12:00:48.345Z,260
2016-08-28T12:02:46.349Z,225
2016-08-28T12:04:01.421Z,130
2016-08-28T12:04:46.313Z,95
2016-08-28T12:05:46.473Z,85
2016-08-28T12:06:47.221Z,80
2016-08-28T12:08:00.934Z,90
2016-08-28T12:08:47.637Z,80
2016-08-28T12:09:49.238Z,110
2016-08-28T12:10:47.821Z,180
2016-08-28T12:12:00.984Z,115
2016-08-28T12:14:01.630Z,130
2016-08-28T12:15:00.831Z,160
2016-08-28T12:15:49.220Z,160
2016-08-28T12:16:46.837Z,110
2016-08-28T12:17:46.875Z,230
2016-08-28T12:18:46.108Z,185
2016-08-28T12:20:47.293Z,140
2016-08-28T12:22:46.718Z,80
2016-08-28T12:24:02.097Z,80
2016-08-28T12:24:45.999Z,80
2016-08-28T12:26:00.721Z,80
2016-08-28T12:26:47.663Z,80
2016-08-28T12:27:46.950Z,80
2016-08-28T12:28:48.466Z,80
2016-08-28T12:29:45.991Z,80
2016-08-28T12:31:00.545Z,80
2016-08-28T12:31:45.868Z,80
2016-08-28T12:32:47.731Z,80
2016-08-28T12:33:45.837Z,80
2016-08-28T12:34:45.868Z,85
2016-08-28T12:35:45.767Z,105
2016-08-28T12:36:46.698Z,105
2016-08-28T12:37:46.509Z,105
2016-08-28T12:38:47.771Z,135
2016-08-28T12:39:46.114Z,80
2016-08-28T12:41:00.426Z,80
2016-08-28T12:41:46.577Z,90
2016-08-28T12:42:45.694Z,80
2016-08-28T12:43:46.586Z,80
2016-08-28T12:44:45.792Z,95
2016-08-28T12:45:46.081Z,85
2016-08-28T12:46:45.708Z,85
2016-08-28T12:47:45.585Z,90
2016-08-28T12:48:45.550Z,85
2016-08-28T12:49:47.579Z,85
2016-08-28T12:50:51.901Z,90
2016-08-28T12:51:47.323Z,80
2016-08-28T12:53:00.971Z,85
2016-08-28T12:53:45.513Z,85
2016-08-28T12:55:00.291Z,85
2016-08-28T12:55:45.447Z,85
2016-08-28T12:56:45.588Z,85
2016-08-28T12:58:00.408Z,85
2016-08-28T12:58:46.117Z,90
2016-08-28T12:59:45.347Z,90
2016-08-28T13:01:00.302Z,95
2016-08-28T13:01:46.375Z,110
2016-08-28T13:02:46.239Z,180
2016-08-28T13:03:53.456Z,145
2016-08-28T13:04:45.246Z,130
2016-08-28T13:05:47.490Z,135
2016-08-28T13:06:45.279Z,320
2016-08-28T13:07:45.244Z,415
2016-08-28T13:08:45.198Z,410
2016-08-28T13:09:45.386Z,320
2016-08-28T13:11:45.114Z,195
2016-08-28T13:12:45.085Z,285
2016-08-28T13:13:45.876Z,140
2016-08-28T13:14:46.221Z,145
2016-08-28T13:15:45.043Z,170
2016-08-28T13:16:47.314Z,140
2016-08-28T13:17:45.854Z,140
2016-08-28T13:18:45.049Z,150
2016-08-28T13:20:47.645Z,170
2016-08-28T13:21:46.113Z,210
2016-08-28T13:22:44.939Z,700
2016-08-28T13:23:45.077Z,195
2016-08-28T13:24:44.989Z,210
2016-08-28T13:25:46.059Z,115
2016-08-28T13:26:44.853Z,120
2016-08-28T13:27:46.718Z,190
2016-08-28T13:28:44.828Z,775
2016-08-28T13:29:45.620Z,500
2016-08-28T13:30:45.105Z,275
2016-08-28T13:31:45.541Z,215
2016-08-28T13:32:44.823Z,80
2016-08-28T13:33:44.967Z,60
2016-08-28T13:34:59.437Z,45
2016-08-28T13:35:45.796Z,45
2016-08-28T13:37:01.143Z,45
2016-08-28T13:37:45.575Z,45
2016-08-28T13:38:44.717Z,55
2016-08-28T13:39:45.087Z,70
2016-08-28T13:40:45.493Z,100
2016-08-28T13:41:44.698Z,95
2016-08-28T13:42:44.640Z,95
2016-08-28T13:43:59.747Z,110
2016-08-28T13:44:44.675Z,120
2016-08-28T13:45:45.264Z,145
2016-08-28T13:46:45.012Z,200
2016-08-28T13:47:44.680Z,275
2016-08-28T13:48:59.166Z,275
2016-08-28T13:49:45.225Z,300
2016-08-28T13:50:59.440Z,225
2016-08-28T13:51:45.022Z,250
2016-08-28T13:52:59.246Z,370
2016-08-28T13:53:45.578Z,310
2016-08-28T13:54:45.422Z,330
2016-08-28T13:55:46.126Z,605
2016-08-28T13:56:45.442Z,450
2016-08-28T13:57:44.885Z,285
2016-08-28T13:58:44.485Z,240
2016-08-28T13:59:45.221Z,340
2016-08-28T14:00:44.869Z,560
2016-08-28T14:02:59.057Z,155
2016-08-28T14:03:59.639Z,195
2016-08-28T14:04:44.531Z,185
2016-08-28T14:05:58.864Z,105
2016-08-28T14:06:44.630Z,75
2016-08-28T14:07:44.425Z,80
2016-08-28T14:08:58.844Z,740
2016-08-28T14:09:44.873Z,645
2016-08-28T14:10:45.543Z,330
2016-08-28T14:11:44.884Z,310
2016-08-28T14:13:13.502Z,355
2016-08-28T14:13:44.440Z,340
2016-08-28T14:14:44.665Z,525
2016-08-28T14:15:44.997Z,930
2016-08-28T14:16:59.101Z,320
2016-08-28T14:17:45.318Z,865
2016-08-28T14:18:46.498Z,555
2016-08-28T14:20:13.505Z,315
2016-08-28T14:20:47.112Z,845
2016-08-28T14:21:46.170Z,1075
2016-08-28T14:23:13.321Z,470
2016-08-28T14:23:44.745Z,410
2016-08-28T14:24:58.742Z,275
2016-08-28T14:25:45.079Z,330
2016-08-28T14:26:44.545Z,445
2016-08-28T14:27:43.909Z,250
2016-08-28T14:28:43.885Z,220
2016-08-28T14:29:59.328Z,130
2016-08-28T14:30:44.972Z,585
2016-08-28T14:32:44.428Z,290
2016-08-28T14:33:58.740Z,810
2016-08-28T14:34:43.714Z,230
2016-08-28T14:35:45.110Z,230
2016-08-28T14:36:45.217Z,495
2016-08-28T14:37:46.159Z,930
2016-08-28T14:38:46.339Z,195
2016-08-28T14:39:45.133Z,455
2016-08-28T14:41:00.331Z,405
2016-08-28T14:41:45.407Z,230
2016-08-28T14:43:44.369Z,595
2016-08-28T14:44:58.297Z,215
2016-08-28T14:45:46.062Z,140
2016-08-28T14:46:58.813Z,180
2016-08-28T14:47:58.989Z,220
2016-08-28T14:48:58.690Z,310
2016-08-28T14:49:44.311Z,285
2016-08-28T14:50:44.943Z,165
2016-08-28T14:51:43.521Z,195
2016-08-28T14:52:43.477Z,215
2016-08-28T14:53:44.910Z,435
2016-08-28T14:54:43.418Z,155
2016-08-28T14:55:43.463Z,670
2016-08-28T14:56:43.693Z,520
2016-08-28T14:57:43.444Z,1045
2016-08-28T14:58:43.397Z,785
2016-08-28T14:59:58.119Z,1145
2016-08-28T15:00:44.370Z,875
2016-08-28T15:01:43.369Z,310
2016-08-28T15:02:43.602Z,460
2016-08-28T15:03:43.319Z,155
2016-08-28T15:04:43.273Z,175
2016-08-28T15:05:43.334Z,130
2016-08-28T15:06:57.935Z,115
2016-08-28T15:07:43.223Z,110
2016-08-28T15:08:43.554Z,140
2016-08-28T15:09:43.278Z,100
2016-08-28T15:10:43.167Z,110
2016-08-28T15:11:43.220Z,100
2016-08-28T15:12:44.964Z,100
2016-08-28T15:13:43.931Z,100
2016-08-28T15:14:43.485Z,95
2016-08-28T15:15:43.519Z,90
2016-08-28T15:17:43.529Z,85
2016-08-28T15:18:43.241Z,85
2016-08-28T15:19:43.060Z,80
2016-08-28T15:20:43.081Z,80
2016-08-28T15:21:43.847Z,80
2016-08-28T15:22:43.114Z,65
2016-08-28T15:23:42.969Z,70
2016-08-28T15:24:42.978Z,75
2016-08-28T15:25:42.983Z,70
2016-08-28T15:26:43.211Z,60
2016-08-28T15:28:12.323Z,55
2016-08-28T15:28:42.894Z,65
2016-08-28T15:29:57.567Z,75
2016-08-28T15:30:42.986Z,75
2016-08-28T15:31:57.731Z,80
2016-08-28T15:32:42.799Z,90
2016-08-28T15:33:43.573Z,90
2016-08-28T15:34:42.883Z,80
2016-08-28T15:35:58.684Z,80
2016-08-28T15:36:43.557Z,75
2016-08-28T15:37:42.775Z,60
2016-08-28T15:38:43.403Z,50
2016-08-28T15:39:43.474Z,50
2016-08-28T15:40:44.363Z,50
2016-08-28T15:41:43.468Z,50
2016-08-28T15:42:42.712Z,65
2016-08-28T15:43:43.578Z,60
2016-08-28T15:44:43.004Z,60
2016-08-28T15:48:43.597Z,80
2016-08-28T15:49:29.349Z,75
2016-08-28T15:50:43.550Z,75
2016-08-28T15:51:28.906Z,65
2016-08-28T15:52:28.855Z,55
2016-08-28T15:53:28.791Z,55
2016-08-28T15:54:28.775Z,55
2016-08-28T15:55:30.986Z,60
2016-08-28T15:56:29.050Z,70
2016-08-28T15:57:43.427Z,65
2016-08-28T15:58:28.935Z,55
2016-08-28T15:59:43.390Z,55
2016-08-28T16:00:29.456Z,60
2016-08-28T16:01:28.673Z,60
2016-08-28T16:02:43.349Z,55
2016-08-28T16:03:29.493Z,45
2016-08-28T16:04:28.617Z,45
2016-08-28T16:05:29.864Z,50
2016-08-28T16:06:28.557Z,55
2016-08-28T16:07:28.593Z,50
2016-08-28T16:08:44.409Z,55
2016-08-28T16:09:29.938Z,55
2016-08-28T16:10:30.676Z,55
2016-08-28T16:11:29.136Z,55
2016-08-28T16:12:28.921Z,50
2016-08-28T16:13:28.520Z,55
2016-08-28T16:14:29.335Z,55
2016-08-28T16:15:28.724Z,50
2016-08-28T16:16:29.610Z,45
2016-08-28T16:18:29.609Z,40
2016-08-28T16:19:59.456Z,40
2016-08-28T16:20:29.473Z,35
2016-08-28T16:21:44.230Z,30
2016-08-28T16:22:43.866Z,35
2016-08-28T16:23:34.079Z,35
2016-08-28T16:24:28.662Z,35
2016-08-28T16:25:59.177Z,30
2016-08-28T16:26:28.335Z,25
2016-08-28T16:27:28.604Z,25
2016-08-28T16:28:45.142Z,25
2016-08-28T16:29:43.767Z,30
2016-08-28T16:30:28.499Z,30
2016-08-28T16:31:28.896Z,30
2016-08-28T16:32:44.311Z,35
2016-08-28T16:34:42.881Z,30
2016-08-28T16:35:43.630Z,110
2016-08-28T16:36:28.490Z,105
2016-08-28T16:37:59.364Z,35
2016-08-28T16:38:29.039Z,35
2016-08-28T16:39:43.727Z,40
2016-08-28T16:40:28.052Z,45
2016-08-28T16:41:27.947Z,35
2016-08-28T16:42:28.082Z,35
2016-08-28T16:43:27.928Z,35
2016-08-28T16:44:27.858Z,30
2016-08-28T16:45:44.973Z,30
2016-08-28T16:46:27.868Z,35
2016-08-28T16:47:27.925Z,30
2016-08-28T16:48:43.455Z,25
2016-08-28T16:49:28.960Z,25
2016-08-28T16:50:29.141Z,25
2016-08-28T16:51:45.158Z,30
2016-08-28T16:52:42.467Z,30
2016-08-28T16:54:28.437Z,30
2016-08-28T16:55:27.743Z,30
2016-08-28T16:56:28.065Z,30
2016-08-28T16:57:45.392Z,35
2016-08-28T16:58:27.781Z,35
2016-08-28T16:59:27.670Z,35
2016-08-28T17:00:57.618Z,30
2016-08-28T17:01:27.609Z,30
2016-08-28T17:02:27.614Z,30
2016-08-28T17:03:27.857Z,30
2016-08-28T17:04:43.037Z,30
2016-08-28T17:05:27.478Z,30
2016-08-28T17:06:27.430Z,25
2016-08-28T17:07:28.191Z,25
2016-08-28T17:08:42.887Z,20
2016-08-28T17:09:28.152Z,15
2016-08-28T17:10:42.197Z,15
2016-08-28T17:11:42.155Z,10
2016-08-28T17:12:42.979Z,15
2016-08-28T17:13:28.123Z,15
2016-08-28T17:15:28.393Z,10
2016-08-28T17:16:27.293Z,15
2016-08-28T17:17:27.393Z,10
2016-08-28T17:18:28.068Z,10
2016-08-28T17:19:42.279Z,10
2016-08-28T17:20:27.303Z,10
2016-08-28T17:21:27.619Z,10
2016-08-28T17:22:27.258Z,5
2016-08-28T17:23:28.648Z,5
2016-08-28T17:24:27.104Z,5
2016-08-28T17:25:27.229Z,5
2016-08-28T17:26:56.491Z,5
2016-08-28T17:27:27.348Z,5
2016-08-28T17:28:42.007Z,5
2016-08-28T17:29:27.352Z,5
2016-08-28T17:30:26.988Z,5
2016-08-28T17:31:26.979Z,5
2016-08-28T17:32:27.794Z,5
2016-08-28T17:33:27.238Z,5
2016-08-28T17:34:27.017Z,5
2016-08-28T17:35:26.896Z,5
2016-08-28T17:36:26.901Z,5
2016-08-28T17:37:42.520Z,5
2016-08-28T17:38:26.943Z,5
2016-08-28T17:39:27.130Z,0
2016-08-28T17:40:26.809Z,0
2016-08-28T17:42:41.485Z,0
2016-08-28T17:43:26.777Z,0
2016-08-28T17:44:26.994Z,0
2016-08-28T17:45:29.569Z,0
2016-08-28T17:46:27.345Z,0
2016-08-28T17:47:29.729Z,0
2016-08-28T17:48:26.857Z,0
2016-08-28T17:49:27.731Z,0
2016-08-28T17:50:28.301Z,0
2016-08-28T17:51:26.882Z,0
2016-08-28T17:52:26.627Z,0
2016-08-28T17:53:28.149Z,0
2016-08-28T17:54:26.615Z,0
2016-08-28T17:55:26.516Z,0
2016-08-28T17:56:26.448Z,0
2016-08-28T17:57:27.508Z,0
2016-08-28T17:58:41.115Z,0
2016-08-28T17:59:27.209Z,0
2016-08-28T18:00:26.399Z,0
2016-08-28T18:01:27.358Z,0
2016-08-28T18:02:26.341Z,0
2016-08-28T18:03:26.607Z,0
2016-08-28T18:04:27.052Z,0
2016-08-28T18:05:42.147Z,0
2016-08-28T18:06:26.240Z,0
2016-08-28T18:07:27.331Z,0
2016-08-28T18:08:27.111Z,0
2016-08-28T18:09:26.727Z,0
2016-08-28T18:10:27.438Z,0
2016-08-28T18:11:26.798Z,0
2016-08-28T18:12:27.019Z,0
2016-08-28T18:13:26.106Z,0
2016-08-28T18:14:26.155Z,0
2016-08-28T18:15:27.075Z,0
2016-08-28T18:16:41.908Z,0
2016-08-28T18:18:26.244Z,0
2016-08-28T18:19:26.039Z,0
2016-08-28T18:20:26.081Z,0
2016-08-28T18:21:26.899Z,0
2016-08-28T18:22:26.709Z,0
2016-08-28T18:23:40.610Z,0
2016-08-28T18:24:26.847Z,0
2016-08-28T18:25:27.693Z,0
2016-08-28T18:26:25.904Z,0
2016-08-28T18:27:26.154Z,0
2016-08-28T18:28:25.841Z,0
2016-08-28T18:29:25.805Z,0
2016-08-28T18:30:41.254Z,0
2016-08-28T18:31:26.685Z,0
2016-08-28T18:32:40.462Z,0
2016-08-28T18:33:25.702Z,0
2016-08-28T18:34:25.691Z,0
2016-08-28T18:35:25.666Z,0
2016-08-28T18:36:25.660Z,0
2016-08-28T18:37:25.617Z,0
2016-08-28T18:38:26.444Z,0
2016-08-28T18:39:25.887Z,0
2016-08-28T18:40:26.547Z,0
2016-08-28T18:41:25.687Z,0
2016-08-28T18:42:26.312Z,0
2016-08-28T18:43:26.479Z,0
2016-08-28T18:46:44.093Z,0
2016-08-28T18:47:43.308Z,0
2016-08-28T18:48:43.286Z,0
2016-08-28T18:49:43.261Z,0
2016-08-28T18:50:44.372Z,0
2016-08-28T18:51:43.503Z,0
2016-08-28T18:52:43.207Z,0
2016-08-28T18:53:43.211Z,0
2016-08-28T18:54:58.654Z,0
2016-08-28T18:55:43.256Z,0
2016-08-28T18:56:57.857Z,0
2016-08-28T18:57:43.439Z,0
2016-08-28T18:58:43.102Z,0
2016-08-28T18:59:43.271Z,0
2016-08-28T19:00:44.069Z,0
2016-08-28T19:01:43.226Z,0
2016-08-28T19:02:43.068Z,0
2016-08-28T19:03:43.290Z,0
2016-08-28T19:04:42.989Z,0
2016-08-28T19:05:58.895Z,0
2016-08-28T19:06:42.893Z,0
2016-08-28T19:07:42.913Z,0
2016-08-28T19:08:42.874Z,0
2016-08-28T19:09:43.285Z,0
2016-08-28T19:10:42.992Z,0
2016-08-28T19:11:44.374Z,0
2016-08-28T19:12:42.878Z,0
2016-08-28T19:13:42.837Z,0
2016-08-28T19:14:57.482Z,0
2016-08-28T19:15:43.069Z,0
2016-08-28T19:16:58.476Z,0
2016-08-28T19:17:43.496Z,0
2016-08-28T19:18:42.682Z,0
2016-08-28T19:19:43.445Z,0
2016-08-28T19:20:42.662Z,0
2016-08-28T19:21:42.918Z,0
2016-08-28T19:22:43.366Z,0
2016-08-28T19:23:42.619Z,0
2016-08-28T19:24:43.395Z,0
2016-08-28T19:25:43.786Z,0
2016-08-28T19:26:57.202Z,0
2016-08-28T19:27:42.839Z,0
2016-08-28T19:28:42.446Z,0
2016-08-28T19:29:42.467Z,0
2016-08-28T19:30:48.699Z,0
2016-08-28T19:31:43.181Z,0
2016-08-28T19:32:59.218Z,0
2016-08-28T19:33:42.452Z,0
2016-08-28T19:34:57.062Z,0
2016-08-28T19:35:43.455Z,0
2016-08-28T19:36:57.046Z,0
2016-08-28T19:37:42.485Z,0
2016-08-28T19:39:42.254Z,0
2016-08-28T19:40:42.678Z,0
2016-08-28T19:41:57.706Z,0
2016-08-28T19:42:43.069Z,0
2016-08-28T19:43:57.005Z,0
2016-08-28T19:44:42.525Z,0
2016-08-28T19:45:56.873Z,0
2016-08-28T19:46:42.855Z,0
2016-08-28T19:47:42.902Z,0
2016-08-28T19:48:44.935Z,0
2016-08-28T19:49:42.130Z,0
2016-08-28T19:50:57.904Z,0
2016-08-28T19:51:43.245Z,0
2016-08-28T19:52:44.034Z,0
2016-08-28T19:53:42.871Z,0
2016-08-28T19:54:43.287Z,0
2016-08-28T19:55:43.495Z,0
2016-08-28T19:56:43.667Z,0
2016-08-28T19:57:43.269Z,0
2016-08-28T19:59:42.803Z,0
2016-08-28T20:00:44.521Z,0
2016-08-28T20:01:56.613Z,0
2016-08-28T20:02:42.338Z,0
2016-08-28T20:04:42.569Z,0
2016-08-28T20:05:41.729Z,0
2016-08-28T20:06:42.897Z,0
2016-08-28T20:07:42.775Z,0
2016-08-28T20:08:43.194Z,0
2016-08-28T20:09:42.025Z,0
2016-08-28T20:10:43.733Z,0
2016-08-28T20:11:42.922Z,0
2016-08-28T20:12:43.656Z,0
2016-08-28T20:13:41.867Z,0
2016-08-28T20:14:48.058Z,0
2016-08-28T20:15:41.590Z,0
2016-08-28T20:16:42.283Z,0
2016-08-28T20:17:42.986Z,0
2016-08-28T20:18:41.752Z,0
2016-08-28T20:19:41.447Z,0
2016-08-28T20:20:41.715Z,0
2016-08-28T20:21:56.190Z,0
2016-08-28T20:22:42.206Z,0
2016-08-28T20:23:42.225Z,0
2016-08-28T20:24:42.352Z,0
2016-08-28T20:25:41.299Z,0
2016-08-28T20:26:42.447Z,0
2016-08-28T20:27:42.587Z,0
2016-08-28T20:28:56.006Z,0
2016-08-28T20:29:41.261Z,0
2016-08-28T20:30:41.209Z,0
2016-08-28T20:31:41.605Z,0
2016-08-28T20:32:41.496Z,0
2016-08-28T20:33:42.313Z,0
2016-08-28T20:34:41.152Z,0
2016-08-28T20:35:56.813Z,0
2016-08-28T20:36:41.108Z,0
2016-08-28T20:37:41.085Z,0
2016-08-28T20:38:41.352Z,0
2016-08-28T20:39:41.040Z,0
2016-08-28T20:40:41.279Z,0
2016-08-28T20:41:41.101Z,0
2016-08-28T20:42:41.798Z,0
2016-08-28T20:43:41.756Z,0
2016-08-28T20:44:42.425Z,0
2016-08-28T20:45:58.085Z,0
2016-08-28T20:46:40.953Z,0
2016-08-28T20:47:55.590Z,0
2016-08-28T20:48:55.702Z,0
2016-08-28T20:49:44.818Z,0
2016-08-28T20:50:41.858Z,0
2016-08-28T20:51:55.528Z,0
2016-08-28T20:52:40.798Z,0
2016-08-28T20:53:43.013Z,0
2016-08-28T20:54:40.749Z,0
2016-08-28T20:55:42.618Z,0
2016-08-28T20:56:43.278Z,0
2016-08-28T20:57:40.706Z,0
2016-08-28T20:58:55.483Z,0
2016-08-28T20:59:41.239Z,0
2016-08-28T21:00:46.277Z,0
2016-08-28T21:01:41.666Z,0
2016-08-28T21:02:41.666Z,0
2016-08-28T21:03:40.589Z,0
2016-08-28T21:04:40.602Z,0
2016-08-28T21:05:41.671Z,0
2016-08-28T21:06:40.505Z,0
2016-08-28T21:07:40.534Z,0
2016-08-28T21:08:40.871Z,0
2016-08-28T21:09:40.448Z,0
2016-08-28T21:10:41.582Z,0
2016-08-28T21:11:40.423Z,0
2016-08-28T21:12:41.422Z,0
2016-08-28T21:14:40.626Z,0
2016-08-28T21:15:40.342Z,0
2016-08-28T21:16:41.108Z,0
2016-08-28T21:17:40.280Z,0
2016-08-28T21:18:40.353Z,0
2016-08-28T21:19:40.305Z,0
2016-08-28T21:20:40.508Z,0
2016-08-28T21:21:40.187Z,0
2016-08-28T21:22:40.309Z,0
2016-08-28T21:23:40.176Z,0
2016-08-28T21:25:40.120Z,0
2016-08-28T21:26:55.118Z,0
2016-08-28T21:27:40.797Z,0
2016-08-28T21:28:54.766Z,0
2016-08-28T21:29:40.250Z,0
2016-08-28T21:30:40.193Z,0
2016-08-28T21:31:40.272Z,0
2016-08-28T21:32:40.490Z,0
2016-08-28T21:33:54.611Z,0
2016-08-28T21:34:40.235Z,0
2016-08-28T21:35:55.971Z,0
2016-08-28T21:36:41.072Z,0
2016-08-28T21:37:54.527Z,0
2016-08-28T21:38:40.137Z,0
2016-08-28T21:39:39.799Z,0
2016-08-28T21:41:39.749Z,0
2016-08-28T21:42:54.825Z,0
2016-08-28T21:43:39.729Z,0
2016-08-28T21:44:54.644Z,0
2016-08-28T21:45:39.706Z,0
2016-08-28T21:46:39.653Z,0
2016-08-28T21:47:39.643Z,0
2016-08-28T21:48:40.966Z,0
2016-08-28T21:50:39.939Z,0
2016-08-28T21:51:40.781Z,0
2016-08-28T21:52:40.582Z,0
2016-08-28T21:53:40.705Z,0
2016-08-28T21:54:39.527Z,0
2016-08-28T21:55:39.517Z,0
2016-08-28T21:56:39.820Z,0
2016-08-28T21:57:40.276Z,0
2016-08-28T21:58:39.522Z,0
2016-08-28T21:59:39.374Z,0
2016-08-28T22:00:54.404Z,0
2016-08-28T22:01:41.428Z,0
2016-08-28T22:02:54.248Z,0
2016-08-28T22:03:39.379Z,0
2016-08-28T22:04:39.237Z,0
2016-08-28T22:05:39.233Z,0
2016-08-28T22:06:39.189Z,0
2016-08-28T22:08:39.963Z,0
2016-08-28T22:09:53.848Z,0
2016-08-28T22:10:42.696Z,0
2016-08-28T22:11:54.626Z,0
2016-08-28T22:12:39.093Z,0
2016-08-28T22:13:39.075Z,0
2016-08-28T22:14:39.293Z,0
2016-08-28T22:15:38.980Z,0
2016-08-28T22:16:39.144Z,0
2016-08-28T22:17:38.974Z,0
2016-08-28T22:18:38.982Z,0
2016-08-28T22:19:38.928Z,0
2016-08-28T22:20:54.738Z,0
2016-08-28T22:21:38.977Z,0
2016-08-28T22:22:53.578Z,0
2016-08-28T22:23:38.853Z,0
2016-08-28T22:24:53.509Z,0
2016-08-28T22:25:38.879Z,0
2016-08-28T22:26:39.089Z,0
2016-08-28T22:27:38.859Z,0
2016-08-28T22:28:40.406Z,0
2016-08-28T22:30:38.806Z,0
2016-08-28T22:31:54.163Z,0
2016-08-28T22:32:38.924Z,0
2016-08-28T22:33:38.616Z,0
2016-08-28T22:34:38.765Z,0
2016-08-28T22:35:38.935Z,0
2016-08-28T22:36:39.341Z,0
2016-08-28T22:37:38.789Z,0
2016-08-28T22:38:39.896Z,0
2016-08-28T22:39:38.721Z,0
2016-08-28T22:40:53.320Z,0
2016-08-28T22:41:38.595Z,0
2016-08-28T22:44:39.138Z,0
2016-08-28T22:45:39.874Z,0
2016-08-28T22:46:39.113Z,0
2016-08-28T22:48:39.418Z,0
2016-08-28T22:49:39.067Z,0
2016-08-28T22:50:38.555Z,0
2016-08-28T22:51:38.255Z,0
2016-08-28T22:53:07.648Z,0
2016-08-28T22:54:38.551Z,0
2016-08-28T22:55:39.611Z,0
2016-08-28T22:56:39.189Z,0
2016-08-28T22:57:38.113Z,0
2016-08-28T22:58:38.100Z,0
2016-08-28T22:59:38.810Z,0
2016-08-28T23:00:38.039Z,0
2016-08-28T23:01:38.125Z,0
2016-08-28T23:02:38.662Z,0
2016-08-28T23:03:38.123Z,0
2016-08-28T23:04:38.005Z,0
2016-08-28T23:05:39.051Z,0
2016-08-28T23:06:38.832Z,0
2016-08-28T23:07:38.072Z,0
2016-08-28T23:08:52.898Z,0
2016-08-28T23:09:37.968Z,0
2016-08-28T23:10:37.946Z,0
2016-08-28T23:11:38.698Z,0
2016-08-28T23:12:37.838Z,0
2016-08-28T23:14:22.171Z,0
2016-08-28T23:14:38.548Z,0
2016-08-28T23:16:38.586Z,0
2016-08-28T23:18:37.826Z,0
2016-08-28T23:19:37.951Z,0
2016-08-28T23:20:37.616Z,0
2016-08-28T23:21:37.591Z,0
2016-08-28T23:22:37.578Z,0
2016-08-28T23:23:37.565Z,0
2016-08-28T23:24:38.101Z,0
2016-08-28T23:25:37.829Z,0
2016-08-28T23:26:38.972Z,0
2016-08-28T23:27:37.950Z,0
2016-08-28T23:29:38.643Z,0
2016-08-28T23:31:38.859Z,0
2016-08-28T23:33:38.115Z,0
2016-08-28T23:34:37.501Z,0
2016-08-28T23:35:37.686Z,0
2016-08-28T23:36:38.088Z,0
2016-08-28T23:37:38.620Z,0
2016-08-28T23:38:37.720Z,0
2016-08-28T23:39:38.008Z,0
2016-08-28T23:40:37.620Z,0
2016-08-28T23:41:37.252Z,0
2016-08-28T23:42:37.136Z,0
2016-08-28T23:43:42.440Z,0
2016-08-28T23:44:37.125Z,0
2016-08-28T23:45:53.657Z,0
2016-08-28T23:46:37.066Z,0
2016-08-28T23:47:37.830Z,0
2016-08-28T23:48:36.994Z,0
2016-08-28T23:49:37.583Z,0
2016-08-28T23:50:37.320Z,0
2016-08-28T23:51:36.942Z,0
2016-08-28T23:52:37.669Z,0
2016-08-28T23:53:36.985Z,0
2016-08-28T23:54:36.939Z,0
2016-08-28T23:56:20.962Z,0
2016-08-28T23:56:36.843Z,0
2016-08-28T23:57:36.789Z,0
2016-08-28T23:58:37.567Z,0
2016-08-28T23:59:36.872Z,0
